createdAt,value
2022-08-21T00:02:18.648Z,100524.88
2022-08-21T00:05:20.654Z,100519.28
2022-08-21T00:08:22.222Z,100517.28
2022-08-21T00:11:24.209Z,100516.41
2022-08-21T00:14:25.695Z,100519.88
2022-08-21T00:17:27.544Z,100513.56
2022-08-21T00:20:29.238Z,100514.97
2022-08-21T00:23:31.091Z,100509.31
2022-08-21T00:26:33.313Z,100505.50
2022-08-21T00:29:34.778Z,100498.06
2022-08-21T00:32:38.260Z,100504.69
2022-08-21T00:35:42.465Z,100507.88
2022-08-21T00:38:44.031Z,100509.59
2022-08-21T00:41:46.216Z,100508.19
2022-08-21T00:44:49.875Z,100498.78
2022-08-21T00:47:52.951Z,100498.91
2022-08-21T00:51:09.469Z,100501.69
2022-08-21T00:54:18.498Z,100505.38
2022-08-21T00:57:26.698Z,100504.91
2022-08-21T01:00:33.101Z,100498.91
2022-08-21T01:03:36.351Z,100502.44
2022-08-21T01:06:37.868Z,100504.59
2022-08-21T01:09:41.506Z,100507.38
2022-08-21T01:12:43.407Z,100502.22
2022-08-21T01:15:49.725Z,100501.03
2022-08-21T01:18:52.171Z,100505.91
2022-08-21T01:21:54.600Z,100508.91
2022-08-21T01:24:56.059Z,100501.00
2022-08-21T01:28:00.063Z,100497.38
2022-08-21T01:31:04.115Z,100502.91
2022-08-21T01:34:05.767Z,100504.19
2022-08-21T01:37:07.318Z,100507.19
2022-08-21T01:40:10.037Z,100511.81
2022-08-21T01:43:11.568Z,100505.22
2022-08-21T01:46:13.906Z,100500.81
2022-08-21T01:49:16.594Z,100498.75
2022-08-21T01:52:18.201Z,100495.09
2022-08-21T01:55:20.917Z,100507.03
2022-08-21T01:58:22.762Z,100500.84
2022-08-21T02:01:24.275Z,100505.53
2022-08-21T02:04:25.963Z,100502.56
2022-08-21T02:07:27.471Z,100484.81
2022-08-21T02:10:32.092Z,100491.88
2022-08-21T02:13:33.593Z,100491.00
2022-08-21T02:16:35.489Z,100493.91
2022-08-21T02:19:40.380Z,100487.16
2022-08-21T02:22:42.286Z,100478.59
2022-08-21T02:25:43.802Z,100482.00
2022-08-21T02:28:45.490Z,100485.22
2022-08-21T02:31:46.924Z,100478.91
2022-08-21T02:34:48.348Z,100480.53
2022-08-21T02:37:56.619Z,100476.47
2022-08-21T02:40:58.369Z,100474.50
2022-08-21T02:43:59.800Z,100475.25
2022-08-21T02:47:01.306Z,100476.25
2022-08-21T02:50:03.566Z,100467.59
2022-08-21T02:53:07.442Z,100477.06
2022-08-21T02:56:11.499Z,100475.94
2022-08-21T02:59:13.507Z,100476.91
2022-08-21T03:02:15.662Z,100475.41
2022-08-21T03:05:18.520Z,100477.22
2022-08-21T03:08:20.589Z,100476.16
2022-08-21T03:11:22.679Z,100476.16
2022-08-21T03:14:24.127Z,100479.16
2022-08-21T03:17:29.799Z,100476.97
2022-08-21T03:20:33.384Z,100484.31
2022-08-21T03:23:35.322Z,100478.69
2022-08-21T03:26:36.795Z,100477.00
2022-08-21T03:29:41.864Z,100486.72
2022-08-21T03:32:43.782Z,100484.94
2022-08-21T03:35:48.028Z,100477.56
2022-08-21T03:38:49.486Z,100479.59
2022-08-21T03:41:50.913Z,100475.28
2022-08-21T03:44:52.688Z,100483.59
2022-08-21T03:48:02.814Z,100487.59
2022-08-21T03:51:04.546Z,100494.19
2022-08-21T03:54:06.020Z,100484.66
2022-08-21T03:57:08.628Z,100493.88
2022-08-21T04:00:12.892Z,100490.94
2022-08-21T04:03:14.707Z,100501.34
2022-08-21T04:06:16.141Z,100502.09
2022-08-21T04:09:19.387Z,100505.22
2022-08-21T04:12:21.847Z,100505.22
2022-08-21T04:15:25.886Z,100505.59
2022-08-21T04:18:27.478Z,100513.44
2022-08-21T04:21:29.240Z,100518.69
2022-08-21T04:24:30.717Z,100518.19
2022-08-21T04:27:32.192Z,100511.50
2022-08-21T04:30:33.928Z,100516.84
2022-08-21T04:33:35.495Z,100524.38
2022-08-21T04:36:36.953Z,100536.34
2022-08-21T04:39:38.423Z,100534.09
2022-08-21T04:43:05.330Z,100540.50
2022-08-21T04:46:07.017Z,100545.63
2022-08-21T04:49:08.445Z,100549.56
2022-08-21T04:52:11.013Z,100548.50
2022-08-21T04:55:13.091Z,100548.00
2022-08-21T04:58:18.264Z,100544.75
2022-08-21T05:01:22.419Z,100546.91
2022-08-21T05:04:27.670Z,100546.94
2022-08-21T05:07:42.080Z,100545.22
2022-08-21T05:10:45.290Z,100543.91
2022-08-21T05:13:47.849Z,100546.00
2022-08-21T05:16:56.460Z,100548.84
2022-08-21T05:19:57.897Z,100552.09
2022-08-21T05:22:59.443Z,100562.75
2022-08-21T05:26:02.004Z,100561.63
2022-08-21T05:29:04.413Z,100560.94
2022-08-21T05:32:13.316Z,100558.94
2022-08-21T05:35:14.901Z,100555.34
2022-08-21T05:38:18.382Z,100553.69
2022-08-21T05:41:19.983Z,100546.00
2022-08-21T05:44:21.478Z,100545.41
2022-08-21T05:47:24.452Z,100561.91
2022-08-21T05:50:28.405Z,100553.44
2022-08-21T05:53:34.596Z,100552.19
2022-08-21T05:56:36.043Z,100546.47
2022-08-21T05:59:38.595Z,100555.56
2022-08-21T06:02:41.096Z,100554.88
2022-08-21T06:05:43.705Z,100559.59
2022-08-21T06:08:45.494Z,100556.84
2022-08-21T06:11:46.909Z,100566.09
2022-08-21T06:14:48.502Z,100561.13
2022-08-21T06:17:49.965Z,100558.47
2022-08-21T06:20:51.423Z,100567.03
2022-08-21T06:23:52.852Z,100569.03
2022-08-21T06:26:54.903Z,100568.94
2022-08-21T06:29:58.366Z,100568.00
2022-08-21T06:33:00.136Z,100565.28
2022-08-21T06:36:01.707Z,100561.22
2022-08-21T06:39:10.293Z,100565.91
2022-08-21T06:42:27.957Z,100565.28
2022-08-21T06:45:32.228Z,100569.13
2022-08-21T06:48:34.960Z,100569.53
2022-08-21T06:51:36.386Z,100569.66
2022-08-21T06:54:38.827Z,100584.22
2022-08-21T06:57:40.531Z,100573.34
2022-08-21T07:00:52.378Z,100572.25
2022-08-21T07:03:53.959Z,100565.00
2022-08-21T07:06:55.710Z,100565.44
2022-08-21T07:09:57.127Z,100566.59
2022-08-21T07:13:00.484Z,100560.88
2022-08-21T07:16:04.205Z,100561.25
2022-08-21T07:19:05.933Z,100556.28
2022-08-21T07:22:08.208Z,100546.50
2022-08-21T07:25:09.856Z,100552.91
2022-08-21T07:28:11.408Z,100550.88
2022-08-21T07:31:15.591Z,100545.16
2022-08-21T07:34:17.370Z,100542.69
2022-08-21T07:37:18.813Z,100551.56
2022-08-21T07:40:22.014Z,100549.56
2022-08-21T07:43:23.610Z,100542.00
2022-08-21T07:46:26.365Z,100536.59
2022-08-21T07:49:28.796Z,100534.88
2022-08-21T07:52:31.190Z,100538.84
2022-08-21T07:55:33.444Z,100537.72
2022-08-21T07:58:35.311Z,100538.84
2022-08-21T08:01:36.785Z,100536.66
2022-08-21T08:04:38.217Z,100537.88
2022-08-21T08:07:52.478Z,100519.06
2022-08-21T08:10:57.217Z,100523.00
2022-08-21T08:14:00.329Z,100525.63
2022-08-21T08:17:03.397Z,100525.44
2022-08-21T08:20:09.396Z,100529.28
2022-08-21T08:23:12.326Z,100520.41
2022-08-21T08:26:15.302Z,100516.75
2022-08-21T08:29:16.729Z,100518.72
2022-08-21T08:32:18.851Z,100511.22
2022-08-21T08:35:24.366Z,100513.91
2022-08-21T08:38:26.731Z,100507.38
2022-08-21T08:41:30.910Z,100500.94
2022-08-21T08:44:32.692Z,100486.28
2022-08-21T08:47:38.438Z,100493.13
2022-08-21T08:50:49.335Z,100488.03
2022-08-21T08:54:00.021Z,100489.72
2022-08-21T08:57:03.785Z,100492.44
2022-08-21T09:00:10.988Z,100485.97
2022-08-21T09:03:12.455Z,100486.72
2022-08-21T09:06:41.208Z,100477.31
2022-08-21T09:09:56.531Z,100481.16
2022-08-21T09:13:07.245Z,100462.72
2022-08-21T09:16:41.799Z,100465.00
2022-08-21T09:20:12.764Z,100453.38
2022-08-21T09:23:41.985Z,100462.72
2022-08-21T09:27:06.057Z,100449.22
2022-08-21T09:30:10.037Z,100445.88
2022-08-21T09:33:13.873Z,100435.88
2022-08-21T09:36:26.878Z,100441.22
2022-08-21T09:39:31.098Z,100446.72
2022-08-21T09:42:33.193Z,100433.63
2022-08-21T09:45:35.691Z,100442.44
2022-08-21T09:48:46.459Z,100437.66
2022-08-21T09:51:53.810Z,100440.78
2022-08-21T09:54:56.931Z,100438.72
2022-08-21T09:57:58.445Z,100431.81
2022-08-21T10:01:03.647Z,100437.69
2022-08-21T10:04:09.371Z,100439.41
2022-08-21T10:07:14.859Z,100437.19
2022-08-21T10:10:24.270Z,100431.16
2022-08-21T10:13:42.948Z,100427.38
2022-08-21T10:16:51.961Z,100425.16
2022-08-21T10:20:15.874Z,100417.69
2022-08-21T10:23:36.981Z,100414.34
2022-08-21T10:27:00.285Z,100418.47
2022-08-21T10:30:08.071Z,100414.09
2022-08-21T10:33:17.228Z,100411.19
2022-08-21T10:36:36.594Z,100415.97
2022-08-21T10:40:05.808Z,100410.28
2022-08-21T10:43:35.871Z,100402.81
2022-08-21T10:47:05.446Z,100398.66
2022-08-21T10:50:28.817Z,100398.03
2022-08-21T10:53:42.352Z,100397.22
2022-08-21T10:56:45.487Z,100388.03
2022-08-21T11:00:00.578Z,100397.13
2022-08-21T11:03:05.264Z,100396.84
2022-08-21T11:06:13.998Z,100403.97
2022-08-21T11:09:19.895Z,100396.66
2022-08-21T11:12:30.244Z,100385.66
2022-08-21T11:15:49.044Z,100392.53
2022-08-21T11:18:58.933Z,100382.53
2022-08-21T11:22:14.229Z,100376.19
2022-08-21T11:25:36.529Z,100376.81
2022-08-21T11:28:45.784Z,100371.91
2022-08-21T11:32:23.812Z,100375.16
2022-08-21T11:35:35.559Z,100371.78
2022-08-21T11:38:52.440Z,100367.97
2022-08-21T11:42:30.676Z,100360.19
2022-08-21T11:45:48.613Z,100365.84
2022-08-21T11:49:05.250Z,100363.78
2022-08-21T11:52:15.753Z,100357.13
2022-08-21T11:55:33.587Z,100360.88
2022-08-21T11:58:44.337Z,100352.13
2022-08-21T12:01:46.554Z,100353.81
2022-08-21T12:05:08.476Z,100348.38
2022-08-21T12:08:10.338Z,100340.88
2022-08-21T12:11:17.813Z,100336.25
2022-08-21T12:14:19.696Z,100339.91
2022-08-21T12:17:24.557Z,100339.75
2022-08-21T12:20:58.101Z,100340.97
2022-08-21T12:24:17.414Z,100328.41
2022-08-21T12:27:31.146Z,100334.88
2022-08-21T12:30:39.807Z,100326.53
2022-08-21T12:33:41.951Z,100326.69
2022-08-21T12:36:48.694Z,100326.50
2022-08-21T12:39:53.316Z,100320.19
2022-08-21T12:42:59.069Z,100314.06
2022-08-21T12:46:01.744Z,100307.78
2022-08-21T12:49:13.501Z,100300.31
2022-08-21T12:52:23.695Z,100309.09
2022-08-21T12:55:31.957Z,100303.53
2022-08-21T12:58:33.434Z,100303.25
2022-08-21T13:01:52.424Z,100298.13
2022-08-21T13:04:56.419Z,100307.72
2022-08-21T13:07:58.289Z,100301.31
2022-08-21T13:11:09.234Z,100298.44
2022-08-21T13:14:30.185Z,100299.56
2022-08-21T13:17:37.256Z,100299.75
2022-08-21T13:20:44.139Z,100306.16
2022-08-21T13:23:46.067Z,100297.28
2022-08-21T13:26:51.303Z,100301.22
2022-08-21T13:30:23.024Z,100293.09
2022-08-21T13:33:36.420Z,100298.38
2022-08-21T13:36:42.818Z,100295.81
2022-08-21T13:39:50.608Z,100294.50
2022-08-21T13:42:53.338Z,100293.16
2022-08-21T13:45:56.599Z,100291.13
2022-08-21T13:49:00.155Z,100289.88
2022-08-21T13:52:02.029Z,100285.03
2022-08-21T13:55:14.129Z,100286.13
2022-08-21T13:58:29.932Z,100278.50
2022-08-21T14:01:37.744Z,100287.16
2022-08-21T14:04:55.644Z,100276.94
2022-08-21T14:08:20.447Z,100287.41
2022-08-21T14:11:22.886Z,100279.91
2022-08-21T14:14:29.637Z,100276.81
2022-08-21T14:17:42.333Z,100275.25
2022-08-21T14:20:45.857Z,100262.22
2022-08-21T14:23:47.401Z,100251.50
2022-08-21T14:26:59.405Z,100248.78
2022-08-21T14:30:13.999Z,100244.31
2022-08-21T14:33:25.753Z,100250.97
2022-08-21T14:36:27.879Z,100248.53
2022-08-21T14:39:29.313Z,100240.19
2022-08-21T14:42:30.990Z,100242.81
2022-08-21T14:45:32.506Z,100236.69
2022-08-21T14:48:33.957Z,100241.31
2022-08-21T14:51:35.387Z,100232.66
2022-08-21T14:54:36.917Z,100226.44
2022-08-21T14:57:39.284Z,100225.84
2022-08-21T15:00:40.814Z,100225.09
2022-08-21T15:03:42.593Z,100224.78
2022-08-21T15:06:44.443Z,100223.91
2022-08-21T15:09:45.929Z,100234.03
2022-08-21T15:12:47.381Z,100221.66
2022-08-21T15:15:53.539Z,100222.38
2022-08-21T15:18:55.342Z,100220.16
2022-08-21T15:21:56.797Z,100217.88
2022-08-21T15:24:58.234Z,100219.13
2022-08-21T15:28:00.533Z,100210.28
2022-08-21T15:31:02.265Z,100207.84
2022-08-21T15:34:03.995Z,100208.06
2022-08-21T15:37:08.793Z,100210.28
2022-08-21T15:40:10.962Z,100204.41
2022-08-21T15:43:30.025Z,100208.09
2022-08-21T15:46:32.295Z,100207.06
2022-08-21T15:49:33.785Z,100201.94
2022-08-21T15:52:35.937Z,100198.47
2022-08-21T15:55:37.433Z,100201.06
2022-08-21T15:58:39.429Z,100194.59
2022-08-21T16:01:44.739Z,100190.03
2022-08-21T16:04:46.719Z,100188.53
2022-08-21T16:07:49.404Z,100182.94
2022-08-21T16:10:52.947Z,100192.81
2022-08-21T16:13:56.905Z,100196.63
2022-08-21T16:16:59.007Z,100193.06
2022-08-21T16:20:03.638Z,100190.06
2022-08-21T16:23:05.846Z,100189.13
2022-08-21T16:26:09.685Z,100188.22
2022-08-21T16:29:16.438Z,100180.91
2022-08-21T16:32:18.460Z,100181.28
2022-08-21T16:35:21.319Z,100179.31
2022-08-21T16:38:23.947Z,100169.25
2022-08-21T16:41:33.271Z,100167.00
2022-08-21T16:44:35.470Z,100166.06
2022-08-21T16:47:39.029Z,100168.16
2022-08-21T16:50:40.544Z,100171.44
2022-08-21T16:53:43.679Z,100167.09
2022-08-21T16:56:47.895Z,100166.63
2022-08-21T16:59:49.719Z,100165.84
2022-08-21T17:02:54.638Z,100170.66
2022-08-21T17:05:56.191Z,100159.97
2022-08-21T17:08:58.972Z,100163.06
2022-08-21T17:12:00.425Z,100173.94
2022-08-21T17:15:07.265Z,100164.31
2022-08-21T17:18:14.496Z,100158.03
2022-08-21T17:21:18.667Z,100158.00
2022-08-21T17:24:21.038Z,100161.91
2022-08-21T17:27:26.780Z,100158.16
2022-08-21T17:30:28.616Z,100163.94
2022-08-21T17:33:38.844Z,100153.44
2022-08-21T17:36:40.306Z,100153.56
2022-08-21T17:39:41.870Z,100151.59
2022-08-21T17:42:45.363Z,100157.88
2022-08-21T17:45:47.049Z,100147.91
2022-08-21T17:48:48.469Z,100149.09
2022-08-21T17:51:50.118Z,100158.06
2022-08-21T17:54:51.583Z,100146.38
2022-08-21T17:57:53.286Z,100141.63
2022-08-21T18:00:54.902Z,100152.47
2022-08-21T18:03:56.891Z,100156.06
2022-08-21T18:06:58.322Z,100154.50
2022-08-21T18:10:01.847Z,100154.00
2022-08-21T18:13:05.699Z,100155.19
2022-08-21T18:16:08.183Z,100156.84
2022-08-21T18:19:15.227Z,100156.84
2022-08-21T18:22:16.670Z,100163.59
2022-08-21T18:25:18.420Z,100161.69
2022-08-21T18:28:20.585Z,100168.63
2022-08-21T18:31:22.110Z,100174.31
2022-08-21T18:34:30.190Z,100172.53
2022-08-21T18:37:32.003Z,100168.41
2022-08-21T18:40:36.631Z,100177.22
2022-08-21T18:43:38.360Z,100173.72
2022-08-21T18:46:40.203Z,100185.50
2022-08-21T18:49:41.846Z,100188.28
2022-08-21T18:52:52.904Z,100186.97
2022-08-21T18:59:17.331Z,100188.81
2022-08-21T19:02:19.152Z,100185.38
2022-08-21T19:05:23.063Z,100194.88
2022-08-21T19:08:28.608Z,100195.31
2022-08-21T19:11:30.822Z,100196.25
2022-08-21T19:14:33.165Z,100194.66
2022-08-21T19:17:35.316Z,100196.50
2022-08-21T19:20:41.431Z,100198.69
2022-08-21T19:23:44.397Z,100199.28
2022-08-21T19:26:45.964Z,100200.66
2022-08-21T19:29:47.475Z,100197.09
2022-08-21T19:32:51.067Z,100203.72
2022-08-21T19:35:53.241Z,100202.66
2022-08-21T19:38:54.663Z,100201.53
2022-08-21T19:41:58.210Z,100203.28
2022-08-21T19:44:59.651Z,100207.13
2022-08-21T19:48:01.357Z,100208.00
2022-08-21T19:51:05.097Z,100205.72
2022-08-21T19:54:14.457Z,100215.53
2022-08-21T19:57:19.133Z,100206.19
2022-08-21T20:00:20.592Z,100205.38
2022-08-21T20:03:22.063Z,100209.06
2022-08-21T20:06:24.484Z,100208.91
2022-08-21T20:09:25.985Z,100206.19
2022-08-21T20:12:28.559Z,100203.59
2022-08-21T20:15:29.973Z,100205.03
2022-08-21T20:18:33.485Z,100210.56
2022-08-21T20:21:43.546Z,100208.97
2022-08-21T20:24:46.606Z,100196.94
2022-08-21T20:27:48.592Z,100206.00
2022-08-21T20:31:40.743Z,100207.44
2022-08-21T20:38:03.777Z,100209.59
2022-08-21T20:41:17.891Z,100199.97
2022-08-21T20:44:32.887Z,100201.69
2022-08-21T20:47:36.180Z,100209.34
2022-08-21T20:50:44.601Z,100216.47
2022-08-21T20:54:02.521Z,100205.97
2022-08-21T20:57:18.510Z,100209.50
2022-08-21T21:00:22.637Z,100208.25
2022-08-21T21:03:55.393Z,100206.66
2022-08-21T21:06:59.100Z,100202.81
2022-08-21T21:10:05.229Z,100215.72
2022-08-21T21:13:16.808Z,100200.13
2022-08-21T21:16:33.693Z,100210.19
2022-08-21T21:19:55.645Z,100209.06
2022-08-21T21:23:10.991Z,100206.38
2022-08-21T21:26:29.136Z,100216.72
2022-08-21T21:29:40.058Z,100218.94
2022-08-21T21:32:43.229Z,100218.94
2022-08-21T21:35:54.185Z,100222.63
2022-08-21T21:39:10.161Z,100219.19
2022-08-21T21:42:49.315Z,100228.28
2022-08-21T21:46:15.087Z,100223.38
2022-08-21T21:49:38.099Z,100216.88
2022-08-21T21:52:59.849Z,100221.09
2022-08-21T21:56:23.798Z,100223.59
2022-08-21T21:59:55.421Z,100218.22
2022-08-21T22:03:09.474Z,100222.56
2022-08-21T22:06:25.792Z,100212.53
2022-08-21T22:09:43.662Z,100215.38
2022-08-21T22:12:53.801Z,100211.41
2022-08-21T22:15:56.115Z,100221.34
2022-08-21T22:19:02.306Z,100217.13
2022-08-21T22:22:21.774Z,100218.66
2022-08-21T22:25:33.205Z,100213.97
2022-08-21T22:28:44.103Z,100215.50
2022-08-21T22:32:06.845Z,100218.41
2022-08-21T22:35:22.643Z,100219.03
2022-08-21T22:38:27.258Z,100223.41
2022-08-21T22:41:31.623Z,100230.66
2022-08-21T22:44:47.899Z,100224.97
2022-08-21T22:47:52.090Z,100227.94
2022-08-21T22:51:05.633Z,100227.19
2022-08-21T22:54:16.719Z,100230.41
2022-08-21T22:57:28.722Z,100234.59
2022-08-21T23:00:48.187Z,100233.66
2022-08-21T23:07:51.381Z,100240.50
2022-08-21T23:11:02.866Z,100239.44
2022-08-21T23:14:06.902Z,100241.25
2022-08-21T23:17:32.465Z,100241.97
2022-08-21T23:20:35.127Z,100235.91
2022-08-21T23:24:19.132Z,100239.06
2022-08-21T23:27:46.228Z,100253.91
2022-08-21T23:31:03.698Z,100263.09
2022-08-21T23:34:25.589Z,100261.53
2022-08-21T23:38:09.389Z,100265.88
2022-08-21T23:41:42.690Z,100250.13
2022-08-21T23:45:13.649Z,100251.94
2022-08-21T23:48:55.460Z,100279.69
2022-08-21T23:52:24.045Z,100273.09
2022-08-21T23:55:42.492Z,100272.16
2022-08-21T23:58:59.926Z,100262.66
